KUNV

University Park Airport

Airport
ICAO code
KUNV
Summary
ICAO Region
NAM
ICAO Territory
Location

State College, Pennsylvania,

Coordinates
40° 51' 21" N , 77° 50' 38" W
KCC
Airport WX
Cumulonimbus
Metar
KUNV 151853Z 29010G16KT 10SM SCT085 22/08 A2988

Description

University Park Airport is a public airport located in Centre County, Pennsylvania which serves the towns of State College and Bellefonte.

Climatology

Humid continental climate (Köppen climate classification Dfa) - characterized by four seasons: cold, windy, snowy winters, mild springs, hot, humid summers, and crisp and relatively short autumns. Precipitation reaches its lowest in January and February and peaks in summer and latter half of spring.

Runways

Designator Length Width Surface Rops
6/24 2042 46 ASP Yes/Yes

Airport map

Aerial View

SKYbrary Partners:

Safety knowledge contributed by: